createdAt,value
2023-02-20T00:02:22.467Z,6.90
2023-02-20T00:04:50.609Z,6.55
2023-02-20T00:07:18.742Z,6.95
2023-02-20T00:09:46.637Z,6.25
2023-02-20T00:12:14.722Z,6.07
2023-02-20T00:14:42.686Z,7.32
2023-02-20T00:17:12.049Z,7.63
2023-02-20T00:19:39.986Z,7.25
2023-02-20T00:22:07.967Z,7.00
2023-02-20T00:24:35.901Z,8.30
2023-02-20T00:27:03.888Z,9.00
2023-02-20T00:29:34.485Z,9.43
2023-02-20T00:32:03.002Z,8.88
2023-02-20T00:34:34.702Z,10.60
2023-02-20T00:37:02.651Z,12.52
2023-02-20T00:39:30.724Z,11.50
2023-02-20T00:41:59.150Z,12.45
2023-02-20T00:44:27.624Z,13.18
2023-02-20T00:46:55.864Z,12.80
2023-02-20T00:49:23.834Z,13.00
2023-02-20T00:51:54.621Z,14.27
2023-02-20T00:54:22.560Z,13.98
2023-02-20T00:56:50.665Z,14.15
2023-02-20T00:59:18.577Z,14.07
2023-02-20T01:01:46.620Z,14.18
2023-02-20T01:04:14.640Z,15.48
2023-02-20T01:06:43.476Z,13.48
2023-02-20T01:09:14.533Z,13.75
2023-02-20T01:11:43.768Z,14.23
2023-02-20T01:14:12.364Z,14.27
2023-02-20T01:16:45.904Z,13.88
2023-02-20T01:19:14.431Z,14.07
2023-02-20T01:21:42.393Z,14.50
2023-02-20T01:24:13.942Z,13.15
2023-02-20T01:26:42.528Z,13.45
2023-02-20T01:29:10.583Z,13.60
2023-02-20T01:31:38.639Z,13.32
2023-02-20T01:34:09.879Z,13.45
2023-02-20T01:36:38.108Z,14.00
2023-02-20T01:39:06.184Z,13.10
2023-02-20T01:41:35.497Z,12.93
2023-02-20T01:44:03.416Z,12.10
2023-02-20T01:46:53.667Z,12.30
2023-02-20T01:49:35.749Z,11.55
2023-02-20T01:52:11.344Z,11.25
2023-02-20T01:54:41.983Z,12.90
2023-02-20T01:57:18.499Z,11.45
2023-02-20T01:59:48.770Z,10.93
2023-02-20T02:02:17.196Z,11.50
2023-02-20T02:04:46.537Z,11.73
2023-02-20T02:07:15.335Z,10.77
2023-02-20T02:09:48.432Z,12.13
2023-02-20T02:12:17.796Z,11.55
2023-02-20T02:14:45.783Z,10.98
2023-02-20T02:17:44.887Z,11.10
2023-02-20T02:20:47.638Z,11.43
2023-02-20T02:23:49.397Z,9.65
2023-02-20T02:26:46.501Z,10.75
2023-02-20T02:30:03.998Z,10.85
2023-02-20T02:33:07.766Z,9.98
2023-02-20T02:36:10.136Z,10.60
2023-02-20T02:38:46.256Z,10.48
2023-02-20T02:41:23.541Z,10.55
2023-02-20T02:44:00.745Z,11.65
2023-02-20T02:46:33.380Z,11.10
2023-02-20T02:51:39.520Z,11.68
2023-02-20T02:54:13.575Z,11.80
2023-02-20T02:56:45.320Z,10.90
2023-02-20T02:59:15.350Z,12.20
2023-02-20T03:01:47.845Z,12.27
2023-02-20T03:04:23.174Z,11.25
2023-02-20T03:06:59.241Z,11.45
2023-02-20T03:09:31.829Z,12.70
2023-02-20T03:12:02.691Z,12.48
2023-02-20T03:14:55.585Z,11.90
2023-02-20T03:17:30.791Z,11.75
2023-02-20T03:20:01.107Z,12.10
2023-02-20T03:22:37.855Z,12.57
2023-02-20T03:25:12.053Z,12.57
2023-02-20T03:27:46.147Z,12.20
2023-02-20T03:30:21.791Z,11.88
2023-02-20T03:33:12.370Z,11.75
2023-02-20T03:36:02.187Z,11.88
2023-02-20T03:38:55.129Z,12.38
2023-02-20T03:41:42.978Z,11.73
2023-02-20T03:44:16.598Z,12.32
2023-02-20T03:46:48.146Z,13.40
2023-02-20T03:49:38.924Z,13.15
2023-02-20T03:52:07.626Z,13.68
2023-02-20T03:54:41.206Z,13.63
2023-02-20T03:57:13.618Z,11.80
2023-02-20T03:59:49.070Z,13.32
2023-02-20T04:02:23.185Z,11.80
2023-02-20T04:04:54.008Z,11.98
2023-02-20T04:07:26.093Z,12.23
2023-02-20T04:10:02.599Z,11.98
2023-02-20T04:12:37.550Z,11.57
2023-02-20T04:17:41.287Z,11.43
2023-02-20T04:20:10.568Z,11.15
2023-02-20T04:22:48.620Z,10.35
2023-02-20T04:25:26.233Z,10.10
2023-02-20T04:27:54.743Z,11.68
2023-02-20T04:30:22.984Z,11.27
2023-02-20T04:32:51.415Z,11.35
2023-02-20T04:35:20.936Z,12.45
2023-02-20T04:37:51.601Z,10.77
2023-02-20T04:40:23.931Z,11.25
2023-02-20T04:42:52.020Z,12.40
2023-02-20T04:45:19.961Z,12.10
2023-02-20T04:47:48.357Z,10.60
2023-02-20T04:50:22.434Z,13.50
2023-02-20T04:52:52.032Z,11.85
2023-02-20T04:55:22.153Z,11.25
2023-02-20T04:57:56.207Z,11.02
2023-02-20T05:00:26.267Z,11.13
2023-02-20T05:02:54.733Z,11.52
2023-02-20T05:05:24.981Z,11.50
2023-02-20T05:07:56.429Z,10.70
2023-02-20T05:10:27.230Z,11.27
2023-02-20T05:12:56.392Z,10.52
2023-02-20T05:15:25.064Z,10.68
2023-02-20T05:17:53.008Z,10.45
2023-02-20T05:20:41.854Z,10.50
2023-02-20T05:23:08.854Z,11.07
2023-02-20T05:25:38.541Z,10.07
2023-02-20T05:28:06.541Z,10.63
2023-02-20T05:30:34.699Z,10.32
2023-02-20T05:33:02.943Z,9.95
2023-02-20T05:35:31.106Z,10.82
2023-02-20T05:37:59.199Z,9.57
2023-02-20T05:40:27.157Z,9.38
2023-02-20T05:42:56.701Z,10.77
2023-02-20T05:45:24.759Z,10.73
2023-02-20T05:47:52.825Z,10.15
2023-02-20T05:50:20.802Z,10.45
2023-02-20T05:52:48.950Z,9.35
2023-02-20T05:55:17.275Z,9.00
2023-02-20T05:57:45.235Z,9.43
2023-02-20T06:00:15.267Z,9.60
2023-02-20T06:02:43.317Z,10.02
2023-02-20T06:05:11.369Z,9.55
2023-02-20T06:07:39.338Z,10.23
2023-02-20T06:10:07.984Z,8.82
2023-02-20T06:12:35.953Z,8.73
2023-02-20T06:15:04.634Z,9.90
2023-02-20T06:17:34.633Z,9.20
2023-02-20T06:20:02.835Z,9.30
2023-02-20T06:22:30.872Z,8.88
2023-02-20T06:24:58.910Z,9.45
2023-02-20T06:27:27.154Z,8.57
2023-02-20T06:29:55.780Z,8.02
2023-02-20T06:32:24.055Z,7.82
2023-02-20T06:34:53.513Z,8.68
2023-02-20T06:37:21.509Z,8.10
2023-02-20T06:39:49.904Z,7.30
2023-02-20T06:42:17.975Z,8.65
2023-02-20T06:44:46.075Z,8.30
2023-02-20T06:47:14.605Z,7.53
2023-02-20T06:49:44.027Z,8.25
2023-02-20T06:52:13.763Z,7.38
2023-02-20T06:54:42.043Z,7.93
2023-02-20T06:57:10.287Z,7.68
2023-02-20T06:59:41.531Z,8.80
2023-02-20T07:02:12.359Z,7.68
2023-02-20T07:04:40.436Z,8.25
2023-02-20T07:07:08.507Z,7.78
2023-02-20T07:09:37.786Z,7.70
2023-02-20T07:12:07.089Z,8.82
2023-02-20T07:14:35.219Z,7.85
2023-02-20T07:17:03.526Z,8.15
2023-02-20T07:19:31.429Z,8.00
2023-02-20T07:21:59.705Z,8.60
2023-02-20T07:24:28.782Z,7.72
2023-02-20T07:26:58.436Z,7.68
2023-02-20T07:29:26.504Z,7.75
2023-02-20T07:31:54.736Z,8.15
2023-02-20T07:34:22.756Z,8.48
2023-02-20T07:36:50.883Z,7.93
2023-02-20T07:39:18.833Z,7.43
2023-02-20T07:41:47.065Z,8.35
2023-02-20T07:44:41.336Z,8.13
2023-02-20T07:47:09.300Z,8.27
2023-02-20T07:49:37.250Z,6.88
2023-02-20T07:52:05.943Z,7.30
2023-02-20T07:54:34.239Z,7.80
2023-02-20T07:57:02.367Z,8.50
2023-02-20T07:59:30.521Z,7.57
2023-02-20T08:02:00.089Z,7.47
2023-02-20T08:04:28.582Z,8.30
2023-02-20T08:06:56.549Z,7.68
2023-02-20T08:09:24.449Z,7.47
2023-02-20T08:11:52.541Z,7.22
2023-02-20T08:14:20.712Z,7.05
2023-02-20T08:16:48.673Z,7.32
2023-02-20T08:19:18.247Z,6.55
2023-02-20T08:21:46.555Z,7.00
2023-02-20T08:24:14.595Z,7.07
2023-02-20T08:26:46.007Z,6.82
2023-02-20T08:29:14.356Z,6.68
2023-02-20T08:31:43.003Z,6.78
2023-02-20T08:34:11.013Z,7.68
2023-02-20T08:36:41.892Z,7.90
2023-02-20T08:39:10.011Z,6.50
2023-02-20T08:41:43.529Z,7.95
2023-02-20T08:44:11.666Z,6.88
2023-02-20T08:46:46.233Z,7.70
2023-02-20T08:49:14.245Z,7.28
2023-02-20T08:51:43.548Z,7.53
2023-02-20T08:54:11.702Z,7.57
2023-02-20T08:56:40.118Z,8.02
2023-02-20T08:59:08.225Z,7.05
2023-02-20T09:01:36.469Z,7.40
2023-02-20T09:04:04.855Z,6.22
2023-02-20T09:06:32.867Z,6.70
2023-02-20T09:09:02.941Z,7.18
2023-02-20T09:11:31.185Z,7.88
2023-02-20T09:13:59.486Z,7.75
2023-02-20T09:16:28.249Z,6.32
2023-02-20T09:18:57.684Z,7.30
2023-02-20T09:21:25.673Z,7.43
2023-02-20T09:23:53.667Z,6.95
2023-02-20T09:26:23.162Z,7.43
2023-02-20T09:28:51.397Z,7.45
2023-02-20T09:31:19.723Z,6.25
2023-02-20T09:33:51.356Z,6.57
2023-02-20T09:36:19.764Z,6.45
2023-02-20T09:38:47.883Z,7.10
2023-02-20T09:41:29.071Z,6.78
2023-02-20T09:44:09.451Z,7.65
2023-02-20T09:46:38.277Z,6.15
2023-02-20T09:49:13.561Z,7.13
2023-02-20T09:51:46.377Z,6.55
2023-02-20T09:54:19.567Z,7.35
2023-02-20T09:56:53.252Z,7.60
2023-02-20T09:59:26.127Z,7.30
2023-02-20T10:01:57.789Z,7.53
2023-02-20T10:04:29.902Z,7.30
2023-02-20T10:07:05.801Z,7.38
2023-02-20T10:09:34.377Z,6.90
2023-02-20T10:12:14.037Z,6.88
2023-02-20T10:15:05.641Z,7.43
2023-02-20T10:17:46.007Z,7.63
2023-02-20T10:20:21.348Z,8.38
2023-02-20T10:22:58.028Z,6.97
2023-02-20T10:25:30.458Z,7.35
2023-02-20T10:28:06.121Z,7.25
2023-02-20T10:30:40.285Z,7.70
2023-02-20T10:33:22.385Z,8.70
2023-02-20T10:35:55.750Z,7.47
2023-02-20T10:38:28.318Z,6.68
2023-02-20T10:41:05.543Z,7.10
2023-02-20T10:43:41.724Z,6.95
2023-02-20T10:46:15.900Z,7.50
2023-02-20T10:48:45.482Z,7.53
2023-02-20T10:51:19.680Z,7.50
2023-02-20T10:53:53.586Z,7.40
2023-02-20T10:56:27.320Z,6.95
2023-02-20T10:59:03.533Z,7.55
2023-02-20T11:01:33.880Z,6.93
2023-02-20T11:04:06.180Z,6.35
2023-02-20T11:06:39.313Z,6.63
2023-02-20T11:09:08.718Z,6.05
2023-02-20T11:11:42.120Z,7.53
2023-02-20T11:14:16.824Z,6.70
2023-02-20T11:16:49.899Z,6.03
2023-02-20T11:19:23.114Z,6.50
2023-02-20T11:21:52.465Z,7.07
2023-02-20T11:24:27.361Z,6.55
2023-02-20T11:27:01.076Z,6.43
2023-02-20T11:29:36.633Z,5.70
2023-02-20T11:32:33.260Z,5.55
2023-02-20T11:35:33.610Z,5.85
2023-02-20T11:38:33.739Z,6.43
2023-02-20T11:41:10.185Z,6.47
2023-02-20T11:43:43.667Z,5.32
2023-02-20T11:46:19.058Z,5.57
2023-02-20T11:49:01.833Z,5.40
2023-02-20T11:51:39.635Z,6.07
2023-02-20T11:54:09.905Z,6.50
2023-02-20T11:56:38.454Z,6.70
2023-02-20T11:59:29.743Z,5.93
2023-02-20T12:02:12.981Z,5.97
2023-02-20T12:04:41.121Z,6.80
2023-02-20T12:07:20.582Z,6.45
2023-02-20T12:09:53.513Z,6.20
2023-02-20T12:12:23.882Z,5.53
2023-02-20T12:14:52.327Z,6.28
2023-02-20T12:17:29.698Z,5.22
2023-02-20T12:20:07.977Z,4.78
2023-02-20T12:22:38.404Z,5.53
2023-02-20T12:25:19.669Z,5.75
2023-02-20T12:27:58.711Z,5.32
2023-02-20T12:30:40.614Z,5.47
2023-02-20T12:33:37.012Z,4.75
2023-02-20T12:36:12.044Z,5.43
2023-02-20T12:38:46.942Z,5.30
2023-02-20T12:41:30.803Z,5.20
2023-02-20T12:44:14.996Z,5.55
2023-02-20T12:46:55.272Z,5.22
2023-02-20T12:49:52.162Z,5.75
2023-02-20T12:52:49.843Z,5.30
2023-02-20T12:55:29.963Z,5.25
2023-02-20T12:58:12.111Z,5.53
2023-02-20T13:00:42.970Z,5.38
2023-02-20T13:03:16.036Z,5.88
2023-02-20T13:05:48.879Z,5.13
2023-02-20T13:08:22.079Z,5.60
2023-02-20T13:10:57.110Z,5.47
2023-02-20T13:13:27.358Z,5.13
2023-02-20T13:16:03.316Z,5.65
2023-02-20T13:18:40.313Z,5.65
2023-02-20T13:21:14.709Z,6.22
2023-02-20T13:23:43.015Z,5.40
2023-02-20T13:26:44.090Z,5.20
2023-02-20T13:29:14.288Z,5.57
2023-02-20T13:31:48.018Z,5.72
2023-02-20T13:34:34.868Z,5.80
2023-02-20T13:37:06.014Z,6.95
2023-02-20T13:39:40.350Z,5.00
2023-02-20T13:42:32.296Z,5.43
2023-02-20T13:45:01.261Z,5.68
2023-02-20T13:47:38.461Z,5.93
2023-02-20T13:50:31.872Z,4.60
2023-02-20T13:53:06.952Z,5.32
2023-02-20T13:55:35.761Z,6.13
2023-02-20T13:58:11.938Z,5.88
2023-02-20T14:01:01.516Z,5.93
2023-02-20T14:04:22.913Z,5.47
2023-02-20T14:06:58.828Z,5.55
2023-02-20T14:09:34.408Z,6.25
2023-02-20T14:12:16.025Z,5.68
2023-02-20T14:14:48.287Z,5.97
2023-02-20T14:17:37.368Z,5.47
2023-02-20T14:20:23.157Z,5.78
2023-02-20T14:23:07.616Z,5.53
2023-02-20T14:25:37.650Z,5.85
2023-02-20T14:28:16.705Z,5.28
2023-02-20T14:30:46.180Z,5.63
2023-02-20T14:33:32.942Z,6.38
2023-02-20T14:36:19.223Z,4.97
2023-02-20T14:39:08.962Z,5.88
2023-02-20T14:41:39.097Z,5.10
2023-02-20T14:44:17.699Z,5.60
2023-02-20T14:46:46.414Z,6.85
2023-02-20T14:49:16.903Z,6.25
2023-02-20T14:51:45.023Z,5.45
2023-02-20T14:54:21.047Z,5.70
2023-02-20T14:56:52.211Z,5.78
2023-02-20T14:59:26.273Z,5.18
2023-02-20T15:01:57.254Z,6.65
2023-02-20T15:04:27.641Z,5.88
2023-02-20T15:07:04.463Z,5.40
2023-02-20T15:09:44.063Z,6.30
2023-02-20T15:12:23.661Z,5.78
2023-02-20T15:14:58.382Z,5.60
2023-02-20T15:17:28.660Z,5.95
2023-02-20T15:19:58.002Z,5.72
2023-02-20T15:22:29.682Z,5.75
2023-02-20T15:25:14.487Z,4.97
2023-02-20T15:28:05.483Z,5.20
2023-02-20T15:30:34.216Z,5.75
2023-02-20T15:33:03.734Z,5.22
2023-02-20T15:35:33.633Z,4.78
2023-02-20T15:38:04.082Z,4.93
2023-02-20T15:40:34.210Z,5.55
2023-02-20T15:43:13.252Z,5.22
2023-02-20T15:45:52.810Z,5.68
2023-02-20T15:48:21.482Z,5.68
2023-02-20T15:50:50.402Z,6.53
2023-02-20T15:53:22.524Z,5.03
2023-02-20T15:55:53.494Z,5.50
2023-02-20T15:58:30.434Z,4.80
2023-02-20T16:01:01.147Z,5.38
2023-02-20T16:03:33.857Z,5.65
2023-02-20T16:06:07.612Z,4.90
2023-02-20T16:08:36.435Z,5.07
2023-02-20T16:11:04.868Z,5.40
2023-02-20T16:13:38.880Z,5.60
2023-02-20T16:16:23.834Z,5.50
2023-02-20T16:18:54.920Z,5.90
2023-02-20T16:21:25.040Z,6.32
2023-02-20T16:23:54.788Z,5.70
2023-02-20T16:26:26.743Z,6.00
2023-02-20T16:29:00.422Z,5.72
2023-02-20T16:32:17.668Z,4.95
2023-02-20T16:34:46.237Z,5.53
2023-02-20T16:37:15.155Z,5.57
2023-02-20T16:39:43.581Z,6.07
2023-02-20T16:42:25.734Z,5.75
2023-02-20T16:44:58.594Z,5.90
2023-02-20T16:47:30.994Z,5.95
2023-02-20T16:50:01.542Z,4.90
2023-02-20T16:52:32.137Z,5.90
2023-02-20T16:55:01.335Z,5.53
2023-02-20T16:57:29.607Z,5.32
2023-02-20T17:00:00.875Z,5.68
2023-02-20T17:02:31.390Z,5.80
2023-02-20T17:05:00.617Z,5.55
2023-02-20T17:07:30.961Z,5.97
2023-02-20T17:09:59.061Z,6.78
2023-02-20T17:12:27.070Z,5.75
2023-02-20T17:14:57.753Z,5.85
2023-02-20T17:17:27.314Z,6.75
2023-02-20T17:19:57.138Z,6.95
2023-02-20T17:22:25.764Z,5.95
2023-02-20T17:24:55.302Z,6.38
2023-02-20T17:27:24.105Z,5.60
2023-02-20T17:29:52.344Z,5.95
2023-02-20T17:32:20.454Z,6.28
2023-02-20T17:34:49.770Z,7.43
2023-02-20T17:37:17.905Z,6.93
2023-02-20T17:39:46.615Z,6.05
2023-02-20T17:42:14.808Z,6.90
2023-02-20T17:44:42.775Z,6.55
2023-02-20T17:47:11.596Z,7.30
2023-02-20T17:49:41.530Z,6.63
2023-02-20T17:52:12.099Z,7.18
2023-02-20T17:54:41.353Z,7.43
2023-02-20T17:57:09.420Z,6.72
2023-02-20T17:59:40.413Z,7.07
2023-02-20T18:02:10.746Z,7.45
2023-02-20T18:04:38.777Z,7.55
2023-02-20T18:07:08.271Z,7.63
2023-02-20T18:09:38.291Z,8.52
2023-02-20T18:12:07.611Z,7.80
2023-02-20T18:14:35.850Z,7.28
2023-02-20T18:17:04.164Z,7.07
2023-02-20T18:19:32.366Z,8.68
2023-02-20T18:22:00.404Z,8.15
2023-02-20T18:24:30.052Z,8.65
2023-02-20T18:26:59.833Z,7.72
2023-02-20T18:29:29.945Z,7.57
2023-02-20T18:31:58.738Z,7.88
2023-02-20T18:34:28.297Z,8.55
2023-02-20T18:36:56.693Z,7.07
2023-02-20T18:39:24.844Z,7.85
2023-02-20T18:41:54.837Z,7.88
2023-02-20T18:44:25.109Z,8.70
2023-02-20T18:46:53.436Z,8.30
2023-02-20T18:49:21.451Z,8.45
2023-02-20T18:51:49.874Z,7.43
2023-02-20T18:54:20.077Z,7.32
2023-02-20T18:56:48.978Z,8.13
2023-02-20T18:59:18.104Z,8.27
2023-02-20T19:01:47.832Z,8.32
2023-02-20T19:04:16.740Z,8.18
2023-02-20T19:06:46.386Z,8.23
2023-02-20T19:09:16.919Z,8.85
2023-02-20T19:11:50.219Z,7.47
2023-02-20T19:14:18.592Z,8.50
2023-02-20T19:16:50.674Z,7.07
2023-02-20T19:19:23.899Z,7.72
2023-02-20T19:21:54.426Z,8.35
2023-02-20T19:24:23.249Z,7.65
2023-02-20T19:26:51.907Z,7.80
2023-02-20T19:29:20.291Z,8.48
2023-02-20T19:31:48.568Z,7.70
2023-02-20T19:34:18.212Z,7.78
2023-02-20T19:36:46.394Z,7.75
2023-02-20T19:39:15.373Z,8.60
2023-02-20T19:41:43.457Z,9.20
2023-02-20T19:44:15.288Z,8.45
2023-02-20T19:46:44.647Z,8.10
2023-02-20T19:49:13.685Z,7.75
2023-02-20T19:51:48.202Z,7.72
2023-02-20T19:54:17.205Z,7.50
2023-02-20T19:56:50.651Z,7.85
2023-02-20T19:59:19.219Z,7.20
2023-02-20T20:01:51.828Z,8.90
2023-02-20T20:04:21.468Z,7.30
2023-02-20T20:06:51.408Z,7.40
2023-02-20T20:09:35.236Z,7.30
2023-02-20T20:12:04.663Z,7.28
2023-02-20T20:14:33.154Z,7.72
2023-02-20T20:17:02.908Z,6.50
2023-02-20T20:19:31.111Z,7.90
2023-02-20T20:22:00.879Z,7.03
2023-02-20T20:24:29.440Z,7.38
2023-02-20T20:26:59.228Z,7.53
2023-02-20T20:29:27.391Z,7.50
2023-02-20T20:31:55.808Z,6.32
2023-02-20T20:34:25.234Z,7.45
2023-02-20T20:36:53.670Z,6.43
2023-02-20T20:39:23.586Z,5.55
2023-02-20T20:41:51.676Z,6.93
2023-02-20T20:44:21.521Z,6.78
2023-02-20T20:46:49.665Z,5.95
2023-02-20T20:49:17.856Z,6.88
2023-02-20T20:51:47.327Z,6.90
2023-02-20T20:54:15.576Z,5.95
2023-02-20T20:56:49.973Z,5.97
2023-02-20T20:59:18.742Z,7.70
2023-02-20T21:01:47.130Z,7.45
2023-02-20T21:04:16.936Z,7.07
2023-02-20T21:06:45.816Z,7.47
2023-02-20T21:09:14.233Z,7.57
2023-02-20T21:11:42.461Z,7.68
2023-02-20T21:14:12.353Z,7.28
2023-02-20T21:16:40.641Z,8.23
2023-02-20T21:19:08.956Z,8.00
2023-02-20T21:21:37.204Z,7.93
2023-02-20T21:24:06.265Z,7.30
2023-02-20T21:26:37.929Z,8.45
2023-02-20T21:29:07.042Z,7.78
2023-02-20T21:31:38.366Z,7.85
2023-02-20T21:34:08.083Z,8.25
2023-02-20T21:36:36.584Z,8.38
2023-02-20T21:39:06.455Z,9.38
2023-02-20T21:41:52.106Z,8.55
2023-02-20T21:44:27.633Z,9.40
2023-02-20T21:46:58.877Z,8.75
2023-02-20T21:49:27.321Z,9.00
2023-02-20T21:51:56.325Z,9.15
2023-02-20T21:54:28.672Z,10.20
2023-02-20T21:56:56.949Z,10.35
2023-02-20T21:59:24.109Z,10.10
2023-02-20T22:01:51.538Z,10.00
2023-02-20T22:04:20.675Z,10.40
2023-02-20T22:07:07.440Z,10.88
2023-02-20T22:09:53.544Z,10.10
2023-02-20T22:12:39.742Z,10.00
2023-02-20T22:15:25.829Z,9.20
2023-02-20T22:18:12.178Z,9.73
2023-02-20T22:20:59.850Z,9.07
2023-02-20T22:23:45.750Z,10.68
2023-02-20T22:26:34.193Z,9.27
2023-02-20T22:29:20.308Z,9.93
2023-02-20T22:32:06.233Z,7.97
2023-02-20T22:35:02.209Z,8.23
2023-02-20T22:37:56.345Z,8.15
2023-02-20T22:40:42.527Z,8.02
2023-02-20T22:43:28.196Z,7.75
2023-02-20T22:46:13.954Z,8.60
2023-02-20T22:48:59.350Z,7.88
2023-02-20T22:51:45.482Z,7.78
2023-02-20T22:54:33.289Z,8.43
2023-02-20T22:57:18.768Z,7.78
2023-02-20T23:00:04.376Z,7.03
2023-02-20T23:02:51.255Z,6.72
2023-02-20T23:05:36.817Z,7.15
2023-02-20T23:08:22.888Z,5.82
2023-02-20T23:11:10.197Z,5.55
2023-02-20T23:13:55.725Z,5.60
2023-02-20T23:16:43.592Z,5.60
2023-02-20T23:19:29.689Z,5.60
2023-02-20T23:22:15.092Z,5.68
2023-02-20T23:25:00.348Z,5.60
2023-02-20T23:27:47.586Z,5.45
2023-02-20T23:30:34.128Z,5.18
2023-02-20T23:33:19.526Z,5.75
2023-02-20T23:36:05.447Z,5.70
2023-02-20T23:38:51.148Z,5.70
2023-02-20T23:41:36.597Z,5.43
2023-02-20T23:44:25.721Z,5.63
2023-02-20T23:47:12.126Z,6.57
2023-02-20T23:49:57.753Z,5.80
2023-02-20T23:52:43.338Z,5.47
2023-02-20T23:55:28.879Z,5.90
2023-02-20T23:58:14.240Z,6.25
